Benjamín Herrera

Scout - Estudiantes
22 Feb 2028
Tuesday
Process

Personality

Adaptability (6) Ambition (16) Controversy (3) Loyalty (6) Pressure (5) Professionalism (13) Sportsmanship (7) Temperament (16)

Profile

Coaching Style Democratic
License National B
Determination 11
Man Management 8
Motivating 15
Discipline 14
Job Satisfaction
73%
Fatigue
0%
Role Scout
Wage 17.4K p/w
Contract 14.03.2028

Performance

Behaviour Good
Training Effectiveness
57%
Player Development
75%
Injury Prevention
25%
Tactical Implementation
70%

Recent Events

Contract negotiation started now
Attended a recruitment meeting now
Recommended a transfer target now
Attended a recruitment meeting now
Assessed a player 7d ago
Assessed a player 7d ago
Contract negotiation started 7d ago
Assessed a player 7d ago

Currently Monitoring

145
Player Club Status Ability Confidence Watched Last Observed Latest Vote
Marquinhos Spartak Moscow Active 123 / 135 40% 5 20.02.2028 -
Giuliano Simeone Atlético Madrid Active 150 / 153 40% 4 20.02.2028 -
Juan Brunetta FC Copenhagen Active 148 / 136 40% 2 20.02.2028 -
Luciano Gondou CSKA Moscow Active 125 / 128 40% 6 19.02.2028 -
Lucas Beltrán Fiorentina Active 139 / 139 40% 9 19.02.2028 -
Dango Ouattara Brentford Active 147 / 145 40% 2 19.02.2028 -
John Yeboah Venezia Active 139 / 126 40% 1 19.02.2028 -
Lorenzo Lucca Napoli Active 150 / 144 40% 1 19.02.2028 -
Santiago Pierotti Lecce Active 143 / 137 40% 1 18.02.2028 -
Maksim Samorodov Akhmat Grozny Active 141 / 126 40% 1 18.02.2028 -
Moise Kean Fiorentina Active 163 / 158 40% 2 17.02.2028 -
Felipe Augusto Zenit Active 148 / 127 40% 1 17.02.2028 -
Pavel Bucha FC Cincinnati Active 130 / 131 40% 4 15.02.2028 -
Raúl García Osasuna Active 131 / 141 40% 3 15.02.2028 -
Thiago Almada AC Milan Active 155 / 151 40% 5 15.02.2028 -
Ruan Alanyaspor Active 145 / 137 40% 1 15.02.2028 -
Prince Adu Kwabena Standard Liege Active 135 / 136 40% 1 15.02.2028 -
Exequiel Zeballos Fiorentina Active 152 / 146 40% 1 15.02.2028 -
Jhon Jhon Zenit Active 144 / 144 40% 3 13.02.2028 -
Matteo Prati Cagliari Active 144 / 133 40% 3 13.02.2028 -
Joaquín Panichelli Le Havre AC Active 136 / 151 40% 1 13.02.2028 -
Matías Soulé AS Roma Active 159 / 163 40% 1 12.02.2028 -
Alexis Saelemaekers AC Milan Active 161 / 158 40% 1 12.02.2028 -
Angeliño AS Roma Active 151 / 149 40% 3 11.02.2028 -
Joško Gvardiol Napoli Active 167 / 175 40% 1 11.02.2028 -
Victor Torp Coventry City Active 146 / 127 40% 1 11.02.2028 -
Assane Diao Lazio Active 148 / 152 40% 2 09.02.2028 -
Giacomo Raspadori Atalanta Active 147 / 154 40% 2 08.02.2028 -
Makoto Mitsuta Gamba Osaka Active 132 / 125 40% 2 08.02.2028 -
Jesús Rodríguez Como Active 140 / 144 40% 3 06.02.2028 -
Ethan Ampadu Leeds United Active 156 / 149 40% 1 06.02.2028 -
Donyell Malen AS Roma Active 163 / 153 40% 1 06.02.2028 -
Ez Abde Girona Active 151 / 149 40% 3 05.02.2028 -
Gabriel Martinelli Brighton Active 170 / 171 40% 1 05.02.2028 -
Rasmus Højlund Lazio Active 163 / 155 40% 1 04.02.2028 -
Gaetano Oristanio Venezia Active 142 / 136 40% 1 04.02.2028 -
Jakob Napoleon Romsaas Charleroi Active 116 / 122 40% 1 04.02.2028 -
Gastón Togni Defensa y Justicia Active 131 / 124 40% 3 31.01.2028 Monitor
Christopher Nkunku AC Milan Active 151 / 163 40% 1 31.01.2028 -
Charles De Ketelaere Palermo Active 173 / 155 40% 4 30.01.2028 -
Jesús Ricardo Angulo Toluca Active 134 / 132 40% 2 30.01.2028 -
Kevin Zenón Boca Juniors Active 129 / 133 40% 1 30.01.2028 -
Uriel Antuna Zaragoza Active 148 / 144 40% 4 29.01.2028 -
Batxi Krasnodar Active 121 / 137 40% 1 27.01.2028 -
Christian Krasnodar Active 129 / 130 40% 5 26.01.2028 -
Gonçalo Ramos AC Milan Active 163 / 163 40% 1 23.01.2028 -
Damián Puebla Rubin Active 139 / 130 40% 1 21.01.2028 -
Maxim Glushenkov Zenit Active 153 / 138 40% 3 19.01.2028 -
Andrey Mostovoy Zenit Active 133 / 139 40% 1 19.01.2028 -
Adrià Altimira Deportivo La Coruña Active 141 / 131 40% 1 16.01.2028 -
Lewis Morgan SuperSport United Active 145 / 132 40% 1 14.01.2028 -
Matheus Alves Lokomotiv Moscow Active 135 / 144 40% 1 14.01.2028 -
Mateusz Bogusz Houston Dynamo Active 131 / 127 40% 1 14.01.2028 -
Youssouf Fofana AC Milan Active 163 / 154 40% 1 12.01.2028 -
Mattéo Tramoni Pisa Active 134 / 137 40% 1 10.01.2028 -
Alan Lescano Argentinos Juniors Active 127 / 130 40% 2 09.01.2028 Needs More Info
Teboho Mokoena Independiente Active 129 / 130 40% 2 09.01.2028 -
Kevin Paredes River Plate Active 141 / 137 40% 2 08.01.2028 -
Carlos Palacios Boca Juniors Active 141 / 127 40% 1 07.01.2028 -
Alan Velasco Boca Juniors Active 125 / 127 40% 1 06.01.2028 -
Zito Luvumbo Cagliari Active 122 / 131 40% 1 06.01.2028 -
Daniel Maldini Atalanta Active 144 / 140 40% 1 06.01.2028 -
Lucas Carrizo Newell's Old Boys Active 126 / 121 40% 1 28.12.2027 -
Arnau Comas Deportivo La Coruña Active 140 / 123 40% 1 28.12.2027 -
Pepelu Valencia Active 150 / 148 40% 1 28.12.2027 -
Bryan Ramírez FC Cincinnati Active 130 / 125 40% 1 20.12.2027 -
Juan Cruz Cortazzo Gimnasia La Plata Active 99 / 110 65% 1 12.07.2027 Approve
Erick Sánchez OGC Nice Lost 139 / 139 66% 1 01.06.2027 Approve
Gustavo Mantuan Zenit Active 143 / 126 40% 3 30.05.2027 -
Yves Bissouma Tottenham Active 153 / 142 40% 3 28.05.2027 -
Luis Chávez Dinamo Moscow Active 144 / 138 40% 2 18.05.2027 -
Nicolò Savona Nottingham Forest Active 141 / 138 40% 2 17.05.2027 -
Wendel Zenit Active 150 / 150 40% 1 16.05.2027 -
Facundo Bernal Betis Active 123 / 142 40% 2 14.05.2027 -
Lucas Olaza Krasnodar Active 139 / 121 40% 3 08.05.2027 -
Alexandr Chernikov Krasnodar Active 131 / 127 40% 1 06.05.2027 -
Moisés CSKA Moscow Active 123 / 132 40% 1 30.04.2027 -
Trai Hume Sunderland Active 133 / 132 40% 1 17.04.2027 -
João Victor CSKA Moscow Active 116 / 131 40% 2 16.04.2027 -
Tristan Degreef Anderlecht Active 125 / 130 40% 1 15.04.2027 -
Caspar Jander Southampton Active 123 / 134 40% 2 09.04.2027 -
Yacine Adli Al-Shabab Active 142 / 134 40% 1 31.03.2027 -
Danil Glebov Dinamo Moscow Active 116 / 129 40% 1 18.03.2027 -
Esequiel Barco Spartak Moscow Active 144 / 139 40% 5 14.03.2027 -
Eduard Spertsyan Al-Ahli Active 141 / 139 40% 4 25.02.2027 -
Marcelo Allende Mamelodi Sundowns Active 143 / 126 40% 1 22.02.2027 -
Matheus Gonçalves Al-Ahli Active 120 / 125 40% 2 16.02.2027 -
Reda Khadra Qarabag Active 140 / 140 40% 2 09.02.2027 -
Victor Parada Spartak Moscow Active 122 / 113 40% 1 22.01.2027 -
Rubens Dinamo Moscow Active 115 / 123 40% 1 19.01.2027 -
Filip Kaloč Ludogorets Active 125 / 134 40% 1 14.01.2027 -
Crysencio Summerville Al-Hilal Active 132 / 147 40% 2 13.01.2027 -
Hélio Varela Maccabi Tel Aviv Active 117 / 121 40% 1 05.01.2027 -
Ruben van Bommel Ferencvaros Active 120 / 127 40% 1 02.12.2026 -
Gabriel Jesus Barcelona Active 146 / 150 40% 7 29.11.2026 -
Fabián Paris Saint-Germain Negotiating 166 / 155 40% 2 25.11.2026 -
Ángel Correa River Plate Active 151 / 144 40% 4 25.11.2026 Monitor
Musa Barrow Al-Khaleej Active 130 / 142 40% 2 21.11.2026 -
Oscar Al-Taawoun Active 152 / 140 40% 2 21.11.2026 -
Renato Tapia Al Wasl Active 123 / 136 40% 1 19.11.2026 -
Marlon Gomes Shakhtar Active 129 / 146 40% 2 18.11.2026 -
Sergej Milinković-Savić Al-Hilal Active 151 / 162 40% 1 18.11.2026 -
Allan Saint-Maximin Charlotte Football Club Active 145 / 145 40% 2 14.11.2026 -
Houssem Aouar Al-Ittihad Active 150 / 142 40% 2 14.11.2026 -
Senny Mayulu Paris Saint-Germain Active 148 / 141 40% 2 14.11.2026 -
Jonathan Bamba Chicago Fire Active 143 / 135 40% 3 10.11.2026 -
Galeno Al-Ahli Active 149 / 139 40% 1 08.11.2026 -
Sergio Reguilón Inter Miami CF Active 138 / 132 40% 5 06.11.2026 -
Théo Hernández Al-Hilal Active 154 / 157 40% 2 06.11.2026 -
Leon Bailey Olympiacos Active 147 / 136 40% 1 05.11.2026 -
Pedrinho Shakhtar Active 128 / 125 40% 1 05.11.2026 -
Brais Méndez Columbus Crew Active 152 / 142 40% 3 03.11.2026 -
Petar Stanić Ludogorets Active 123 / 130 40% 3 30.10.2026 -
Miles Robinson FC Cincinnati Active 139 / 134 40% 1 29.10.2026 -
Romano Schmid Frosinone Active 155 / 141 40% 1 20.10.2026 -
Marco Asensio Fenerbahce Active 152 / 156 40% 1 16.10.2026 -
Barış Alper Yılmaz Galatasaray Active 155 / 144 40% 3 08.10.2026 -
Breel Embolo Atlanta United FC Active 129 / 135 40% 3 08.10.2026 -
Samú Al-Nassr Active 147 / 142 40% 1 05.10.2026 -
Leroy Sané Galatasaray Active 159 / 153 40% 2 02.10.2026 -
Alexis Cuello San Lorenzo Active 134 / 119 40% 1 02.10.2026 -
Romelu Castagne KV Oostende Active 121 / 131 40% 1 30.09.2026 -
Aníbal Moreno River Plate Active 137 / 129 40% 1 29.09.2026 -
Mauro Arambarri River Plate Active 146 / 160 40% 2 24.09.2026 -
Ryan Gauld Vancouver Whitecaps Active 127 / 139 40% 2 23.09.2026 -
Thorgan Witsel KV Oostende Active 138 / 130 40% 1 23.09.2026 -
Diego Rossi Monterrey Active 131 / 132 40% 2 16.09.2026 -
Stanislav Lobotka Galatasaray Active 148 / 149 40% 2 16.09.2026 -
Duvan Rangel La Equidad Active 141 / 129 40% 1 13.09.2026 -
Luis Romo Guadalajara Active 134 / 140 40% 2 11.09.2026 -
Martín Ojeda Orlando City Active 143 / 135 40% 1 11.09.2026 -
Carlos Rodríguez Cruz Azul Active 136 / 129 40% 2 08.09.2026 -
Leo Ceara Kashima Antlers Active 125 / 128 40% 1 06.09.2026 -
Alejandro Zendejas Club America Active 132 / 137 40% 2 03.09.2026 -
Kerem Aktürkoğlu Fenerbahce Active 132 / 145 40% 1 30.08.2026 -
Agustín Palavecino Cruz Azul Active 140 / 136 40% 2 28.08.2026 -
Petar Musa Adana Demirspor Active 150 / 136 40% 1 25.08.2026 -
Guus Til PSV Active 144 / 131 40% 1 09.08.2026 -
Dodi Lukébakio Benfica Active 132 / 149 40% 1 09.08.2026 -
Kasper Dolberg Ajax Active 132 / 139 40% 1 06.08.2026 -
João Palhinha Benfica Active 160 / 147 40% 1 06.08.2026 -
Jesús Gallardo Toluca Active 141 / 140 40% 1 06.08.2026 -
Antoni Milambo Brentford Active 147 / 146 40% 1 05.08.2026 -
Ayase Ueda LOSC Lille Active 133 / 138 40% 1 02.08.2026 -
Marcos Llorente Atlético Madrid Active 148 / 157 40% 1 01.08.2026 -